createdAt,value
2022-10-07T00:00:42.257Z,6.40
2022-10-07T00:03:08.996Z,6.53
2022-10-07T00:05:35.694Z,5.83
2022-10-07T00:08:02.356Z,6.27
2022-10-07T00:10:29.611Z,6.97
2022-10-07T00:12:57.050Z,5.87
2022-10-07T00:15:23.685Z,5.83
2022-10-07T00:17:50.352Z,6.47
2022-10-07T00:20:17.033Z,5.50
2022-10-07T00:22:43.850Z,5.60
2022-10-07T00:25:10.501Z,5.47
2022-10-07T00:27:37.197Z,5.90
2022-10-07T00:30:04.357Z,5.67
2022-10-07T00:32:31.042Z,5.90
2022-10-07T00:34:57.709Z,6.10
2022-10-07T00:37:24.350Z,6.33
2022-10-07T00:39:51.008Z,6.40
2022-10-07T00:42:18.001Z,6.43
2022-10-07T00:44:45.723Z,6.63
2022-10-07T00:47:24.131Z,6.30
2022-10-07T00:49:58.170Z,6.40
2022-10-07T00:52:28.050Z,7.33
2022-10-07T00:54:57.133Z,7.40
2022-10-07T00:57:26.381Z,5.80
2022-10-07T00:59:55.482Z,5.60
2022-10-07T01:02:24.691Z,6.30
2022-10-07T01:04:53.356Z,6.97
2022-10-07T01:07:21.699Z,7.33
2022-10-07T01:09:51.249Z,7.37
2022-10-07T01:12:32.235Z,6.70
2022-10-07T01:15:04.190Z,7.20
2022-10-07T01:17:50.547Z,7.30
2022-10-07T01:20:31.659Z,8.23
2022-10-07T01:23:24.267Z,7.40
2022-10-07T01:25:59.829Z,7.87
2022-10-07T01:28:37.738Z,7.30
2022-10-07T01:31:07.620Z,8.03
2022-10-07T01:33:37.023Z,6.83
2022-10-07T01:36:15.389Z,8.87
2022-10-07T01:38:50.001Z,8.33
2022-10-07T01:41:19.724Z,7.50
2022-10-07T01:43:48.466Z,7.73
2022-10-07T01:46:22.152Z,6.93
2022-10-07T01:48:49.186Z,7.30
2022-10-07T01:51:17.585Z,7.70
2022-10-07T01:54:12.014Z,7.80
2022-10-07T01:56:46.354Z,6.90
2022-10-07T01:59:33.256Z,7.33
2022-10-07T02:02:24.301Z,7.47
2022-10-07T02:05:12.403Z,8.10
2022-10-07T02:07:42.226Z,7.63
2022-10-07T02:10:23.218Z,7.53
2022-10-07T02:12:59.855Z,8.07
2022-10-07T02:15:32.493Z,7.60
2022-10-07T02:18:03.331Z,7.63
2022-10-07T02:20:32.438Z,7.17
2022-10-07T02:23:02.332Z,7.33
2022-10-07T02:25:34.778Z,6.60
2022-10-07T02:28:05.984Z,8.00
2022-10-07T02:30:34.816Z,7.50
2022-10-07T02:33:04.512Z,7.30
2022-10-07T02:35:40.994Z,7.60
2022-10-07T02:38:14.298Z,7.63
2022-10-07T02:40:47.811Z,7.50
2022-10-07T02:43:44.706Z,7.33
2022-10-07T02:46:18.507Z,7.40
2022-10-07T02:48:54.131Z,7.97
2022-10-07T02:51:24.916Z,7.90
2022-10-07T02:53:53.118Z,7.80
2022-10-07T02:56:22.985Z,7.20
2022-10-07T02:58:50.940Z,9.70
2022-10-07T03:01:23.217Z,8.33
2022-10-07T03:03:49.984Z,8.07
2022-10-07T03:06:19.534Z,7.57
2022-10-07T03:08:47.927Z,8.33
2022-10-07T03:11:14.656Z,7.50
2022-10-07T03:13:41.306Z,7.73
2022-10-07T03:16:08.099Z,8.03
2022-10-07T03:18:34.784Z,8.23
2022-10-07T03:21:01.587Z,7.97
2022-10-07T03:23:29.430Z,7.03
2022-10-07T03:25:58.179Z,7.47
2022-10-07T03:28:26.870Z,7.20
2022-10-07T03:30:54.006Z,10.93
2022-10-07T03:33:26.344Z,10.30
2022-10-07T03:35:53.797Z,9.80
2022-10-07T03:38:21.372Z,11.00
2022-10-07T03:40:48.036Z,10.10
2022-10-07T03:43:14.703Z,9.33
2022-10-07T03:45:45.345Z,8.93
2022-10-07T03:48:12.095Z,9.30
2022-10-07T03:50:38.803Z,8.50
2022-10-07T03:53:05.575Z,9.70
2022-10-07T03:55:32.384Z,9.40
2022-10-07T03:57:59.805Z,8.93
2022-10-07T04:00:27.751Z,9.43
2022-10-07T04:02:54.523Z,8.50
2022-10-07T04:05:22.783Z,8.83
2022-10-07T04:07:50.662Z,8.53
2022-10-07T04:10:18.798Z,9.33
2022-10-07T04:12:45.959Z,8.43
2022-10-07T04:15:13.654Z,8.67
2022-10-07T04:17:45.343Z,9.73
2022-10-07T04:20:13.823Z,8.50
2022-10-07T04:22:40.694Z,9.53
2022-10-07T04:25:27.266Z,10.13
2022-10-07T04:27:55.207Z,9.73
2022-10-07T04:30:23.389Z,9.57
2022-10-07T04:32:50.691Z,9.93
2022-10-07T04:35:22.652Z,10.13
2022-10-07T04:37:50.596Z,9.97
2022-10-07T04:40:19.287Z,10.47
2022-10-07T04:43:04.837Z,10.73
2022-10-07T04:45:36.110Z,10.57
2022-10-07T04:48:05.689Z,10.83
2022-10-07T04:50:33.774Z,9.77
2022-10-07T04:53:00.514Z,11.77
2022-10-07T04:55:28.198Z,12.83
2022-10-07T04:57:54.927Z,11.50
2022-10-07T05:00:21.662Z,13.97
2022-10-07T05:02:50.441Z,11.57
2022-10-07T05:05:17.936Z,11.47
2022-10-07T05:07:50.555Z,11.47
2022-10-07T05:10:18.235Z,12.83
2022-10-07T05:12:45.266Z,12.50
2022-10-07T05:15:12.214Z,12.47
2022-10-07T05:17:41.032Z,12.13
2022-10-07T05:20:12.351Z,11.80
2022-10-07T05:22:39.675Z,11.13
2022-10-07T05:25:06.802Z,12.00
2022-10-07T05:27:33.517Z,12.83
2022-10-07T05:30:00.188Z,13.67
2022-10-07T05:32:27.910Z,13.07
2022-10-07T05:34:54.647Z,14.37
2022-10-07T05:37:21.354Z,14.33
2022-10-07T05:39:51.937Z,12.50
2022-10-07T05:42:18.780Z,12.27
2022-10-07T05:44:46.150Z,12.20
2022-10-07T05:47:12.802Z,11.93
2022-10-07T05:49:40.103Z,14.30
2022-10-07T05:52:07.734Z,14.57
2022-10-07T05:54:34.445Z,13.23
2022-10-07T05:57:01.092Z,12.10
2022-10-07T05:59:27.755Z,12.93
2022-10-07T06:01:57.460Z,15.37
2022-10-07T06:04:24.254Z,15.40
2022-10-07T06:06:50.971Z,14.60
2022-10-07T06:09:36.151Z,14.67
2022-10-07T06:12:21.559Z,14.43
2022-10-07T06:14:48.255Z,15.10
2022-10-07T06:17:14.966Z,15.53
2022-10-07T06:19:41.693Z,14.97
2022-10-07T06:22:09.104Z,17.47
2022-10-07T06:24:35.839Z,14.77
2022-10-07T06:27:02.558Z,15.33
2022-10-07T06:29:29.411Z,15.37
2022-10-07T06:31:56.252Z,17.10
2022-10-07T06:34:22.995Z,15.13
2022-10-07T06:36:49.668Z,18.53
2022-10-07T06:39:17.830Z,19.50
2022-10-07T06:41:44.592Z,23.53
2022-10-07T06:44:11.276Z,25.17
2022-10-07T06:46:38.019Z,21.27
2022-10-07T06:49:04.757Z,22.73
2022-10-07T06:51:31.451Z,22.23
2022-10-07T06:53:58.147Z,18.00
2022-10-07T06:56:24.901Z,20.17
2022-10-07T06:58:51.787Z,19.20
2022-10-07T07:01:18.612Z,21.60
2022-10-07T07:03:45.299Z,20.07
2022-10-07T07:06:12.058Z,20.97
2022-10-07T07:08:41.087Z,19.83
2022-10-07T07:11:32.037Z,17.00
2022-10-07T07:13:59.487Z,15.50
2022-10-07T07:16:26.604Z,15.77
2022-10-07T07:18:54.875Z,14.63
2022-10-07T07:21:22.806Z,14.97
2022-10-07T07:23:51.146Z,14.17
2022-10-07T07:26:18.688Z,13.87
2022-10-07T07:28:51.586Z,13.33
2022-10-07T07:31:18.332Z,14.30
2022-10-07T07:33:45.080Z,13.17
2022-10-07T07:36:15.934Z,13.87
2022-10-07T07:38:53.156Z,13.70
2022-10-07T07:41:22.179Z,13.00
2022-10-07T07:43:54.047Z,12.97
2022-10-07T07:46:25.718Z,13.13
2022-10-07T07:48:56.446Z,12.10
2022-10-07T07:51:23.148Z,11.77
2022-10-07T07:53:50.265Z,12.60
2022-10-07T07:56:17.772Z,12.77
2022-10-07T07:58:44.852Z,13.23
2022-10-07T08:01:14.514Z,13.73
2022-10-07T08:03:43.207Z,11.97
2022-10-07T08:06:11.940Z,12.37
2022-10-07T08:08:38.682Z,11.43
2022-10-07T08:11:08.794Z,11.33
2022-10-07T08:13:36.509Z,12.17
2022-10-07T08:16:04.937Z,13.67
2022-10-07T08:18:32.149Z,12.10
2022-10-07T08:21:01.526Z,10.60
2022-10-07T08:23:30.141Z,11.20
2022-10-07T08:25:58.682Z,11.13
2022-10-07T08:28:27.455Z,10.67
2022-10-07T08:30:55.458Z,12.67
2022-10-07T08:33:22.904Z,11.03
2022-10-07T08:35:51.144Z,10.47
2022-10-07T08:38:17.924Z,10.90
2022-10-07T08:40:50.156Z,12.40
2022-10-07T08:43:20.330Z,14.43
2022-10-07T08:45:48.028Z,13.53
2022-10-07T08:48:23.782Z,12.23
2022-10-07T08:51:10.930Z,10.77
2022-10-07T08:53:37.945Z,11.90
2022-10-07T08:56:15.557Z,10.67
2022-10-07T08:59:10.220Z,11.53
2022-10-07T09:01:51.963Z,12.13
2022-10-07T09:04:37.258Z,9.27
2022-10-07T09:07:13.334Z,12.50
2022-10-07T09:09:51.639Z,11.93
2022-10-07T09:12:30.429Z,14.10
2022-10-07T09:15:00.482Z,14.07
2022-10-07T09:17:36.536Z,11.50
2022-10-07T09:20:26.620Z,11.70
2022-10-07T09:22:57.414Z,13.13
2022-10-07T09:25:30.217Z,12.97
2022-10-07T09:27:57.357Z,12.67
2022-10-07T09:30:27.834Z,14.90
2022-10-07T09:32:56.739Z,12.47
2022-10-07T09:35:26.304Z,14.63
2022-10-07T09:38:01.449Z,15.20
2022-10-07T09:40:33.071Z,15.43
2022-10-07T09:43:00.615Z,14.93
2022-10-07T09:45:32.585Z,17.53
2022-10-07T09:48:07.635Z,15.30
2022-10-07T09:50:37.374Z,15.30
2022-10-07T09:53:06.172Z,16.40
2022-10-07T09:55:40.200Z,14.77
2022-10-07T09:58:17.852Z,16.37
2022-10-07T10:00:47.939Z,15.73
2022-10-07T10:03:15.433Z,14.40
2022-10-07T10:06:03.422Z,14.40
2022-10-07T10:08:42.706Z,12.10
2022-10-07T10:11:18.241Z,13.43
2022-10-07T10:13:45.007Z,14.43
2022-10-07T10:16:35.969Z,13.53
2022-10-07T10:19:05.598Z,13.60
2022-10-07T10:21:36.846Z,12.67
2022-10-07T10:24:06.714Z,12.73
2022-10-07T10:27:03.841Z,11.57
2022-10-07T10:29:46.499Z,13.93
2022-10-07T10:32:32.211Z,13.15
2022-10-07T10:35:38.472Z,13.70
2022-10-07T10:38:10.984Z,11.47
2022-10-07T10:40:51.561Z,11.17
2022-10-07T10:43:24.271Z,11.53
2022-10-07T10:46:12.690Z,11.90
2022-10-07T10:48:42.120Z,14.00
2022-10-07T10:51:34.481Z,13.27
2022-10-07T10:54:16.168Z,12.97
2022-10-07T10:56:51.891Z,14.13
2022-10-07T10:59:34.689Z,13.82
2022-10-07T11:02:38.602Z,14.07
2022-10-07T11:05:06.298Z,12.10
2022-10-07T11:08:01.644Z,15.00
2022-10-07T11:10:36.409Z,13.33
2022-10-07T11:13:38.509Z,13.90
2022-10-07T11:16:13.180Z,12.70
2022-10-07T11:18:48.754Z,13.47
2022-10-07T11:21:32.628Z,13.03
2022-10-07T11:24:04.359Z,12.37
2022-10-07T11:26:46.108Z,14.07
2022-10-07T11:29:22.572Z,12.00
2022-10-07T11:32:08.090Z,10.70
2022-10-07T11:34:57.057Z,14.07
2022-10-07T11:37:31.586Z,12.53
2022-10-07T11:39:58.320Z,12.30
2022-10-07T11:42:28.910Z,11.63
2022-10-07T11:45:03.191Z,11.47
2022-10-07T11:47:42.860Z,13.20
2022-10-07T11:50:22.714Z,13.23
2022-10-07T11:52:53.482Z,14.30
2022-10-07T11:55:32.035Z,14.07
2022-10-07T11:58:02.071Z,14.10
2022-10-07T12:00:34.368Z,14.47
2022-10-07T12:03:10.105Z,14.10
2022-10-07T12:05:36.753Z,13.70
2022-10-07T12:08:30.721Z,12.97
2022-10-07T12:11:17.335Z,14.67
2022-10-07T12:13:46.147Z,14.90
2022-10-07T12:16:31.536Z,15.90
2022-10-07T12:19:07.180Z,15.45
2022-10-07T12:22:11.538Z,14.03
2022-10-07T12:24:42.723Z,12.37
2022-10-07T12:27:19.391Z,14.37
2022-10-07T12:29:58.497Z,12.93
2022-10-07T12:33:00.883Z,12.43
2022-10-07T12:35:32.328Z,14.80
2022-10-07T12:38:14.420Z,14.17
2022-10-07T12:40:44.177Z,11.73
2022-10-07T12:43:25.854Z,12.73
2022-10-07T12:45:53.630Z,11.23
2022-10-07T12:48:23.868Z,11.33
2022-10-07T12:50:53.870Z,11.73
2022-10-07T12:53:25.297Z,12.17
2022-10-07T12:55:55.272Z,12.03
2022-10-07T12:59:03.997Z,11.57
2022-10-07T13:01:33.794Z,11.20
2022-10-07T13:04:18.610Z,11.30
2022-10-07T13:07:32.211Z,11.90
2022-10-07T13:10:36.645Z,11.50
2022-10-07T13:13:11.201Z,11.53
2022-10-07T13:15:56.955Z,11.90
2022-10-07T13:18:52.727Z,12.27
2022-10-07T13:21:25.671Z,11.20
2022-10-07T13:23:55.305Z,12.10
2022-10-07T13:26:24.240Z,11.33
2022-10-07T13:28:54.595Z,11.67
2022-10-07T13:31:25.936Z,12.20
2022-10-07T13:33:53.643Z,10.83
2022-10-07T13:36:24.476Z,11.83
2022-10-07T13:38:53.720Z,10.43
2022-10-07T13:41:28.975Z,11.32
2022-10-07T13:44:02.392Z,10.60
2022-10-07T13:46:31.890Z,10.93
2022-10-07T13:49:00.114Z,10.63
2022-10-07T13:51:36.513Z,11.00
2022-10-07T13:54:05.929Z,10.87
2022-10-07T13:56:36.013Z,11.83
2022-10-07T13:59:04.334Z,12.67
2022-10-07T14:01:36.991Z,14.13
2022-10-07T14:04:09.959Z,11.60
2022-10-07T14:06:39.369Z,11.77
2022-10-07T14:09:21.711Z,11.40
2022-10-07T14:11:55.418Z,11.33
2022-10-07T14:14:27.120Z,10.97
2022-10-07T14:16:59.558Z,11.67
2022-10-07T14:19:31.809Z,11.43
2022-10-07T14:22:18.751Z,13.13
2022-10-07T14:24:58.222Z,12.23
2022-10-07T14:27:46.987Z,10.80
2022-10-07T14:30:27.319Z,11.40
2022-10-07T14:33:31.015Z,11.17
2022-10-07T14:36:17.406Z,10.23
2022-10-07T14:38:46.747Z,10.90
2022-10-07T14:41:15.474Z,10.93
2022-10-07T14:43:47.612Z,12.30
2022-10-07T14:46:26.131Z,11.40
2022-10-07T14:48:54.046Z,11.80
2022-10-07T14:51:29.393Z,10.97
2022-10-07T14:54:02.853Z,11.60
2022-10-07T14:56:32.554Z,11.23
2022-10-07T14:58:59.591Z,12.10
2022-10-07T15:01:28.411Z,13.77
2022-10-07T15:03:58.107Z,11.20
2022-10-07T15:06:25.351Z,11.10
2022-10-07T15:08:52.055Z,12.53
2022-10-07T15:11:20.673Z,10.67
2022-10-07T15:13:49.589Z,11.80
2022-10-07T15:16:25.873Z,11.23
2022-10-07T15:18:53.392Z,13.15
2022-10-07T15:21:21.643Z,11.17
2022-10-07T15:23:55.060Z,12.70
2022-10-07T15:26:24.455Z,12.53
2022-10-07T15:28:56.508Z,10.77
2022-10-07T15:31:26.629Z,13.13
2022-10-07T15:33:57.709Z,12.23
2022-10-07T15:36:29.079Z,12.80
2022-10-07T15:38:58.948Z,12.80
2022-10-07T15:41:39.981Z,13.55
2022-10-07T15:44:22.071Z,13.18
2022-10-07T15:46:52.704Z,13.90
2022-10-07T15:49:19.502Z,13.03
2022-10-07T15:51:46.746Z,17.50
2022-10-07T15:54:14.027Z,13.93
2022-10-07T15:56:42.135Z,13.20
2022-10-07T15:59:09.396Z,13.50
2022-10-07T16:01:36.109Z,14.37
2022-10-07T16:04:03.580Z,14.73
2022-10-07T16:06:33.810Z,15.90
2022-10-07T16:09:01.379Z,15.63
2022-10-07T16:11:30.228Z,16.17
2022-10-07T16:13:58.578Z,15.97
2022-10-07T16:16:26.842Z,15.10
2022-10-07T16:18:56.728Z,15.40
2022-10-07T16:21:35.734Z,14.20
2022-10-07T16:24:06.318Z,15.53
2022-10-07T16:26:35.659Z,16.40
2022-10-07T16:29:22.803Z,15.50
2022-10-07T16:31:54.639Z,16.03
2022-10-07T16:34:24.034Z,15.87
2022-10-07T16:36:50.911Z,16.43
2022-10-07T16:39:19.064Z,16.73
2022-10-07T16:41:46.757Z,15.43
2022-10-07T16:44:14.304Z,15.00
2022-10-07T16:46:41.624Z,13.50
2022-10-07T16:49:12.030Z,15.27
2022-10-07T16:51:38.695Z,15.80
2022-10-07T16:54:12.535Z,14.80
2022-10-07T16:56:41.348Z,16.17
2022-10-07T16:59:10.578Z,15.67
2022-10-07T17:01:38.140Z,13.57
2022-10-07T17:04:05.955Z,13.80
2022-10-07T17:06:33.675Z,15.00
2022-10-07T17:09:04.480Z,15.40
2022-10-07T17:11:36.580Z,14.60
2022-10-07T17:14:16.290Z,14.47
2022-10-07T17:16:45.826Z,14.37
2022-10-07T17:19:14.939Z,13.90
2022-10-07T17:21:42.259Z,13.13
2022-10-07T17:24:10.061Z,15.00
2022-10-07T17:26:37.851Z,14.83
2022-10-07T17:29:07.712Z,21.33
2022-10-07T17:31:36.723Z,16.17
2022-10-07T17:34:03.538Z,15.53
2022-10-07T17:36:32.214Z,14.80
2022-10-07T17:38:59.274Z,14.40
2022-10-07T17:41:31.747Z,15.73
2022-10-07T17:44:01.078Z,15.90
2022-10-07T17:46:30.397Z,14.50
2022-10-07T17:48:58.536Z,15.33
2022-10-07T17:51:28.808Z,15.57
2022-10-07T17:53:56.998Z,16.00
2022-10-07T17:56:24.155Z,16.97
2022-10-07T17:58:50.887Z,17.83
2022-10-07T18:01:25.033Z,18.50
2022-10-07T18:03:54.275Z,17.50
2022-10-07T18:06:21.601Z,15.57
2022-10-07T18:08:48.301Z,15.43
2022-10-07T18:11:18.249Z,15.80
2022-10-07T18:14:04.141Z,17.13
2022-10-07T18:16:35.270Z,17.30
2022-10-07T18:19:02.281Z,17.70
2022-10-07T18:21:31.827Z,18.37
2022-10-07T18:23:58.825Z,18.97
2022-10-07T18:26:25.547Z,26.27
2022-10-07T18:28:52.428Z,26.77
2022-10-07T18:31:19.559Z,24.77
2022-10-07T18:33:46.417Z,23.00
2022-10-07T18:36:18.845Z,20.57
2022-10-07T18:38:46.153Z,18.43
2022-10-07T18:41:16.183Z,18.70
2022-10-07T18:43:45.326Z,20.07
2022-10-07T18:46:19.170Z,19.47
2022-10-07T18:48:48.068Z,15.93
2022-10-07T18:51:15.555Z,17.53
2022-10-07T18:53:44.759Z,17.63
2022-10-07T18:56:14.367Z,17.60
2022-10-07T18:58:43.819Z,16.30
2022-10-07T19:01:16.410Z,15.43
2022-10-07T19:03:44.154Z,17.07
2022-10-07T19:06:16.842Z,17.37
2022-10-07T19:08:43.602Z,17.00
2022-10-07T19:11:15.483Z,16.63
2022-10-07T19:13:50.046Z,17.33
2022-10-07T19:16:38.138Z,17.93
2022-10-07T19:19:17.159Z,16.80
2022-10-07T19:21:47.402Z,17.77
2022-10-07T19:24:15.454Z,15.70
2022-10-07T19:26:44.594Z,15.53
2022-10-07T19:29:13.237Z,16.20
2022-10-07T19:31:43.522Z,15.23
2022-10-07T19:34:16.117Z,15.90
2022-10-07T19:36:47.000Z,15.87
2022-10-07T19:39:22.970Z,15.23
2022-10-07T19:41:51.033Z,14.50
2022-10-07T19:44:18.237Z,14.50
2022-10-07T19:46:44.978Z,14.93
2022-10-07T19:49:12.464Z,14.63
2022-10-07T19:51:40.370Z,13.50
2022-10-07T19:54:09.908Z,14.00
2022-10-07T19:56:37.491Z,15.13
2022-10-07T19:59:07.007Z,17.23
2022-10-07T20:01:37.085Z,17.83
2022-10-07T20:04:06.723Z,15.90
2022-10-07T20:06:36.490Z,14.70
2022-10-07T20:09:05.424Z,13.50
2022-10-07T20:11:32.744Z,13.53
2022-10-07T20:13:59.939Z,12.60
2022-10-07T20:16:27.520Z,12.63
